Data for 01/12/2008

Time Sea-Level Adjusted Pressure Absolute Pressure Temperature Relative Humidity Dew Point   
(mb) (inHg) (mb) (inHg) (C) (F) (%) (C) (F)
00:05 1018 30.06 847 25.01 -0.9 30.4 91 -2.1 28.1
00:10 1017 30.03 847 25.01 -0.9 30.3 91 -2.3 27.9
00:15 1017 30.03 847 25.01 -0.9 30.4 90 -2.4 27.7
00:20 1017 30.03 847 25.01 -0.9 30.3 89 -2.5 27.6
00:25 1017 30.03 847 25.01 -0.9 30.5 88 -2.7 27.2
00:30 1017 30.03 847 25.01 -0.7 30.7 87 -2.6 27.3
00:35 1018 30.06 847 25.01 -0.8 30.5 88 -2.5 27.5
00:40 1018 30.06 847 25.01 -1 30.1 89 -2.7 27.2
00:45 1018 30.06 847 25.01 -1 30.2 88 -2.7 27.2
00:50 1018 30.06 847 25.01 -0.9 30.3 89 -2.6 27.4
00:55 1018 30.06 847 25.01 -0.9 30.3 88 -2.6 27.3
01:00 1018 30.06 847 25.01 -0.9 30.3 88 -2.7 27.1
01:05 1018 30.06 847 25.01 -0.9 30.3 88 -2.7 27.1
01:10 1018 30.06 847 25.01 -1 30.2 88 -2.8 27
01:15 1018 30.06 847 25.01 -1.2 29.8 89 -2.8 27
01:20 1018 30.06 847 25.01 -1.5 29.3 90 -2.9 26.7
01:25 1018 30.06 847 25.01 -1.6 29.1 90 -3.1 26.5
01:30 1018 30.06 847 25.01 -1.6 29.1 90 -3.1 26.4
01:35 1018 30.06 847 25.01 -1.5 29.3 89 -3.1 26.4
01:40 1018 30.06 847 25.01 -1.3 29.6 88 -3.1 26.4
01:45 1018 30.06 847 25.01 -1.3 29.7 88 -3 26.5
01:50 1018 30.06 847 25.01 -1.4 29.5 89 -2.9 26.7
01:55 1018 30.06 847 25.01 -1.5 29.3 89 -3 26.5
02:00 1018 30.06 847 25.01 -1.5 29.4 89 -3.1 26.5
02:05 1018 30.06 847 25.01 -1.4 29.4 89 -2.9 26.7
02:10 1018 30.06 847 25.01 -1.5 29.4 89 -3.1 26.4
02:15 1018 30.06 847 25.01 -1.3 29.7 87 -3.1 26.3
02:20 1018 30.06 847 25.01 -1.1 30 87 -3.1 26.5
02:25 1018 30.06 847 25.01 -1.2 29.9 87 -3.1 26.4
02:30 1018 30.06 848 25.04 -1.3 29.7 87 -3.2 26.2
02:35 1018 30.06 848 25.04 -1.3 29.7 86 -3.3 26
02:40 1018 30.06 848 25.04 -1.6 29 85 -3.9 25
02:45 1019 30.09 848 25.04 -2.2 28 85 -4.5 23.9
02:50 1019 30.09 848 25.04 -2.3 27.8 85 -4.5 23.8
02:55 1019 30.09 848 25.04 -2.2 28 83 -4.7 23.5
03:00 1019 30.09 848 25.04 -2 28.3 82 -4.7 23.6
03:05 1019 30.09 848 25.04 -1.9 28.6 80 -4.9 23.2
03:10 1019 30.09 848 25.04 -2.1 28.3 80 -5.1 22.8
03:15 1019 30.09 848 25.04 -2.1 28.3 78 -5.4 22.3
03:20 1019 30.09 848 25.04 -1.9 28.5 77 -5.5 22.2
03:25 1019 30.09 848 25.04 -1.9 28.7 77 -5.4 22.3
03:30 1019 30.09 848 25.04 -2.1 28.2 77 -5.7 21.7
03:35 1019 30.09 848 25.04 -2.3 27.9 76 -6 21.2
03:40 1019 30.09 848 25.04 -2.1 28.2 74 -6.1 21.1
03:45 1019 30.09 848 25.04 -1.9 28.6 73 -6.1 21.1
03:50 1019 30.09 848 25.04 -1.7 28.9 72 -6.1 21
03:55 1019 30.09 848 25.04 -1.7 29 72 -6 21.2
04:00 1019 30.09 848 25.04 -1.6 29.2 73 -5.9 21.5
04:05 1019 30.09 848 25.04 -1.6 29.1 74 -5.8 21.6
04:10 1019 30.09 848 25.04 -1.5 29.3 74 -5.7 21.8
04:15 1019 30.09 848 25.04 -1.5 29.4 76 -5.2 22.6
04:20 1019 30.09 848 25.04 -1.5 29.3 77 -5.1 22.9
04:25 1019 30.09 848 25.04 -1.4 29.5 76 -5.1 22.9
04:30 1019 30.09 848 25.04 -1.3 29.7 76 -5 23.1
04:35 1019 30.09 848 25.04 -1.2 29.8 76 -4.9 23.1
04:40 1019 30.09 848 25.04 -1.2 29.9 77 -4.7 23.5
04:45 1019 30.09 848 25.04 -1 30.1 77 -4.6 23.6
04:50 1019 30.09 848 25.04 -1 30.2 76 -4.8 23.3
04:55 1019 30.09 848 25.04 -1 30.1 75 -4.9 23.1
05:00 1019 30.09 848 25.04 -1.1 29.9 75 -4.9 23.1
05:05 1019 30.09 848 25.04 -1.2 29.9 75 -5 22.9
05:10 1019 30.09 848 25.04 -1.2 29.9 74 -5.2 22.6
05:15 1019 30.09 848 25.04 -1.1 30 74 -5.2 22.7
05:20 1019 30.09 848 25.04 -1 30.1 74 -5.2 22.7
05:25 1019 30.09 848 25.04 -1 30.1 73 -5.2 22.6
05:30 1019 30.09 848 25.04 -1.1 30.1 74 -5.2 22.7
05:35 1019 30.09 848 25.04 -1.1 30.1 73 -5.3 22.5
05:40 1019 30.09 848 25.04 -1.1 30.1 73 -5.3 22.5
05:45 1019 30.09 848 25.04 -1.1 30.1 73 -5.3 22.5
05:50 1019 30.09 848 25.04 -1 30.2 73 -5.3 22.5
05:55 1019 30.09 848 25.04 -1 30.2 74 -5.2 22.7
06:00 1019 30.09 848 25.04 -1.2 29.9 75 -5.1 22.8
06:05 1019 30.09 848 25.04 -1.2 29.8 75 -5.1 22.9
06:10 1019 30.09 848 25.04 -1.3 29.7 74 -5.3 22.5
06:15 1019 30.09 848 25.04 -1.2 29.9 74 -5.3 22.4
06:20 1019 30.09 848 25.04 -1.2 29.9 73 -5.5 22.1
06:25 1019 30.09 848 25.04 -1.1 30 73 -5.4 22.3
06:30 1019 30.09 848 25.04 -1.1 29.9 73 -5.4 22.4
06:35 1019 30.09 848 25.04 -1.2 29.9 71 -5.7 21.8
06:40 1019 30.09 848 25.04 -1.1 30.1 72 -5.5 22
06:45 1019 30.09 848 25.04 -1.1 30.1 71 -5.7 21.8
06:50 1019 30.09 848 25.04 -1 30.1 71 -5.7 21.8
06:55 1019 30.09 848 25.04 -1 30.3 70 -5.7 21.7
07:00 1019 30.09 848 25.04 -1.2 29.8 72 -5.6 21.9
07:05 1019 30.09 848 25.04 -1.6 29.2 73 -5.8 21.6
07:10 1019 30.09 848 25.04 -1.7 28.9 74 -5.8 21.6
07:15 1019 30.09 848 25.04 -1.7 28.9 74 -5.8 21.6
07:20 1019 30.09 848 25.04 -1.7 28.9 74 -5.7 21.7
07:25 1019 30.09 848 25.04 -1.8 28.8 75 -5.7 21.8
07:30 1019 30.09 848 25.04 -2.1 28.2 77 -5.5 22
07:35 1019 30.09 848 25.04 -2.2 28.1 77 -5.6 21.9
07:40 1019 30.09 848 25.04 -2 28.4 75 -5.9 21.5
07:45 1019 30.09 848 25.04 -1.8 28.7 75 -5.7 21.8
07:50 1019 30.09 848 25.04 -2.1 28.2 78 -5.5 22.1
07:55 1019 30.09 848 25.04 -2.3 27.9 77 -5.8 21.6
08:00 1019 30.09 848 25.04 -2.1 28.2 77 -5.7 21.8
08:05 1019 30.09 848 25.04 -1.9 28.6 75 -5.8 21.6
08:10 1019 30.09 848 25.04 -1.8 28.8 75 -5.6 21.9
08:15 1019 30.09 848 25.04 -1.8 28.7 74 -5.9 21.4
08:20 1019 30.09 848 25.04 -2 28.4 75 -5.9 21.3
08:25 1019 30.09 848 25.04 -1.9 28.5 74 -6 21.2
08:30 1019 30.09 848 25.04 -1.9 28.7 74 -5.9 21.3
08:35 1019 30.09 848 25.04 -2.1 28.3 73 -6.2 20.8
08:40 1019 30.09 848 25.04 -2.1 28.3 73 -6.3 20.6
08:45 1019 30.09 848 25.04 -2 28.4 74 -6.1 21.1
08:50 1019 30.09 848 25.04 -2.2 28.1 75 -6 21.1
08:55 1019 30.09 848 25.04 -2.2 28 75 -6 21.2
09:00 1019 30.09 848 25.04 -2.2 28 76 -5.8 21.5
09:05 1019 30.09 848 25.04 -2.2 28 73 -6.4 20.5
09:10 1019 30.09 849 25.07 -2.1 28.1 74 -6.2 20.8
09:15 1019 30.09 849 25.07 -2.3 27.9 75 -6.1 21
09:20 1020 30.12 849 25.07 -2.4 27.6 76 -6.1 21.1
09:25 1020 30.12 849 25.07 -2.3 27.9 74 -6.4 20.5
09:30 1020 30.12 849 25.07 -1.9 28.6 72 -6.3 20.7
09:35 1020 30.12 849 25.07 -1.5 29.2 70 -6.4 20.6
09:40 1020 30.12 849 25.07 -1.1 30.1 68 -6.2 20.8
09:45 1020 30.12 849 25.07 -0.8 30.5 67 -6.2 20.8
09:50 1020 30.12 849 25.07 -1.1 29.9 70 -5.9 21.4
09:55 1020 30.12 849 25.07 -1.4 29.6 72 -5.8 21.6
10:00 1020 30.12 849 25.07 -1.1 30 70 -6 21.3
10:05 1020 30.12 849 25.07 -0.8 30.5 68 -6 21.2
10:10 1020 30.12 849 25.07 -0.7 30.8 67 -6 21.2
10:15 1020 30.12 849 25.07 -0.3 31.4 66 -5.9 21.3
10:20 1020 30.12 849 25.07 -0 32 65 -5.9 21.4
10:25 1020 30.12 849 25.07 0.2 32.3 66 -5.4 22.3
10:30 1020 30.12 849 25.07 0.2 32.3 67 -5.2 22.6
10:35 1020 30.12 849 25.07 0.3 32.5 68 -5 23.1
10:40 1020 30.12 849 25.07 0.3 32.6 68 -4.9 23.1
10:45 1020 30.12 849 25.07 0.4 32.8 65 -5.3 22.4
10:50 1020 30.12 849 25.07 0.6 33 65 -5.2 22.6
10:55 1020 30.12 849 25.07 0.8 33.5 64 -5.3 22.5
11:00 1020 30.12 849 25.07 0.7 33.3 62 -5.7 21.8
11:05 1020 30.12 849 25.07 0.1 32.2 67 -5.3 22.5
11:10 1020 30.12 849 25.07 -0.6 30.9 66 -6.1 20.9
11:15 1020 30.12 849 25.07 -0.6 30.9 65 -6.3 20.6
11:20 1020 30.12 849 25.07 0.2 32.3 61 -6.5 20.3
11:25 1020 30.12 849 25.07 0.8 33.4 62 -5.7 21.8
11:30 1019 30.09 849 25.07 0.1 32.2 63 -6.2 20.8
11:35 1019 30.09 849 25.07 -0.1 31.8 64 -6.2 20.9
11:40 1019 30.09 849 25.07 -0.1 31.8 63 -6.3 20.7
11:45 1019 30.09 848 25.04 0.2 32.4 61 -6.4 20.4
11:50 1019 30.09 848 25.04 1.1 34 57 -6.5 20.3
11:55 1019 30.09 848 25.04 2 35.6 52 -7 19.5
12:00 1019 30.09 848 25.04 2.6 36.8 49 -7 19.4
12:05 1019 30.09 848 25.04 2.7 36.9 47 -7.4 18.6
12:10 1019 30.09 848 25.04 2.6 36.7 53 -6 21.2
12:15 1019 30.09 848 25.04 1.7 35.1 55 -6.3 20.7
12:20 1019 30.09 848 25.04 2 35.5 52 -6.9 19.6
12:25 1019 30.09 848 25.04 1.9 35.4 55 -6.2 20.8
12:30 1018 30.06 848 25.04 1.5 34.7 54 -6.7 19.9
12:35 1018 30.06 848 25.04 1.6 34.9 52 -7.2 19
12:40 1018 30.06 847 25.01 3.2 37.8 45 -7.6 18.3
12:45 1018 30.06 847 25.01 3.2 37.8 47 -7 19.5
12:50 1018 30.06 847 25.01 3.2 37.8 48 -6.6 20.1
12:55 1018 30.06 847 25.01 3.3 37.9 46 -7.4 18.7
13:00 1018 30.06 847 25.01 2.9 37.1 48 -7 19.4
13:05 1018 30.06 847 25.01 2.8 37 50 -6.7 19.9
13:10 1018 30.06 847 25.01 2.5 36.6 50 -6.8 19.8
13:15 1018 30.06 847 25.01 3 37.5 46 -7.4 18.6
13:20 1018 30.06 847 25.01 2.6 36.7 50 -6.7 19.9
13:25 1018 30.06 847 25.01 1.9 35.4 52 -7 19.5
13:30 1018 30.06 847 25.01 2.4 36.3 49 -7.3 18.8
13:35 1018 30.06 847 25.01 2.1 35.7 51 -7 19.4
13:40 1018 30.06 847 25.01 2.3 36.2 47 -7.8 18
13:45 1018 30.06 847 25.01 3.5 38.2 48 -6.6 20.1
13:50 1018 30.06 847 25.01 4 39.2 45 -6.9 19.6
13:55 1018 30.06 847 25.01 4.4 40 42 -7.3 18.9
14:00 1018 30.06 847 25.01 4.7 40.5 44 -6.6 20.1
14:05 1018 30.06 847 25.01 5.2 41.4 35 -8.9 16
14:10 1018 30.06 847 25.01 5.3 41.5 36 -8.8 16.2
14:15 1018 30.06 847 25.01 5.5 41.8 37 -8.2 17.2
14:20 1018 30.06 847 25.01 5.4 41.7 34 -9.3 15.2
14:25 1018 30.06 847 25.01 5.4 41.7 36 -8.5 16.8
14:30 1018 30.06 847 25.01 5.7 42.3 33 -9.2 15.4
14:35 1018 30.06 847 25.01 5.5 41.9 35 -8.7 16.3
14:40 1018 30.06 847 25.01 4.9 40.8 36 -9.1 15.7
14:45 1017 30.03 847 25.01 5.2 41.3 35 -9 15.9
14:50 1017 30.03 847 25.01 5.3 41.6 37 -8.2 17.2
14:55 1017 30.03 847 25.01 5 40.9 37 -8.6 16.5
15:00 1017 30.03 847 25.01 4.3 39.7 39 -8.4 16.8
15:05 1017 30.03 847 25.01 4 39.2 39 -8.6 16.6
15:10 1017 30.03 847 25.01 3.8 38.9 40 -8.6 16.5
15:15 1017 30.03 847 25.01 3.5 38.3 42 -8.2 17.3
15:20 1017 30.03 847 25.01 3.3 37.9 42 -8.6 16.6
15:25 1017 30.03 847 25.01 3.2 37.7 43 -8.2 17.3
15:30 1017 30.03 847 25.01 3.1 37.6 44 -7.9 17.7
15:35 1017 30.03 847 25.01 3.1 37.6 43 -8.2 17.2
15:40 1017 30.03 847 25.01 3 37.5 43 -8.4 17
15:45 1017 30.03 847 25.01 3 37.4 44 -8 17.6
15:50 1017 30.03 847 25.01 3.2 37.7 44 -8 17.6
15:55 1018 30.06 847 25.01 3.2 37.8 43 -8 17.5
16:00 1018 30.06 847 25.01 3.3 38 43 -8 17.6
16:05 1018 30.06 847 25.01 3.4 38.2 43 -8 17.6
16:10 1018 30.06 847 25.01 3.4 38.2 44 -7.8 18
16:15 1018 30.06 847 25.01 3.4 38.2 47 -6.8 19.7
16:20 1018 30.06 847 25.01 3 37.4 46 -7.4 18.6
16:25 1018 30.06 847 25.01 2.2 35.9 50 -7.1 19.3
16:30 1018 30.06 847 25.01 1.7 35 51 -7.5 18.5
16:35 1018 30.06 847 25.01 1.8 35.3 50 -7.5 18.6
16:40 1018 30.06 847 25.01 1.8 35.3 51 -7.3 18.8
16:45 1018 30.06 847 25.01 1.8 35.3 50 -7.4 18.7
16:50 1018 30.06 847 25.01 1.7 35.1 50 -7.5 18.5
16:55 1018 30.06 847 25.01 1.5 34.7 50 -7.7 18.2
17:00 1018 30.06 847 25.01 1.1 33.9 52 -7.8 18
17:05 1018 30.06 847 25.01 0.8 33.4 53 -7.9 17.9
17:10 1018 30.06 847 25.01 0.8 33.4 53 -7.9 17.8
17:15 1018 30.06 847 25.01 0.6 33.1 54 -7.6 18.3
17:20 1018 30.06 847 25.01 0.3 32.6 53 -8.1 17.5
17:25 1018 30.06 847 25.01 0.1 32.2 53 -8.4 16.8
17:30 1018 30.06 847 25.01 0.1 32.2 57 -7.5 18.6
17:35 1018 30.06 847 25.01 -0.2 31.6 56 -8 17.6
17:40 1018 30.06 847 25.01 -0.3 31.4 59 -7.5 18.6
17:45 1018 30.06 847 25.01 -0.7 30.8 61 -7.3 18.9
17:50 1018 30.06 847 25.01 -0.8 30.5 61 -7.4 18.6
17:55 1018 30.06 847 25.01 -0.9 30.4 61 -7.5 18.5
18:00 1018 30.06 847 25.01 -1.1 29.9 64 -7.2 19.1
18:05 1018 30.06 847 25.01 -1.2 29.8 63 -7.4 18.7
18:10 1018 30.06 847 25.01 -1.4 29.5 61 -8.1 17.5
18:15 1018 30.06 847 25.01 -1.3 29.7 59 -8.2 17.2
18:20 1018 30.06 847 25.01 -1.3 29.6 61 -8 17.7
18:25 1018 30.06 847 25.01 -1.5 29.2 65 -7.3 18.8
18:30 1018 30.06 847 25.01 -2.2 28.1 67 -7.6 18.3
18:35 1018 30.06 847 25.01 -2.6 27.3 68 -7.8 18
18:40 1018 30.06 847 25.01 -2.7 27.2 66 -8.1 17.3
18:45 1018 30.06 847 25.01 -2.4 27.7 65 -8.2 17.2
18:50 1018 30.06 847 25.01 -2.1 28.3 62 -8.5 16.8
18:55 1018 30.06 847 25.01 -1.9 28.5 61 -8.5 16.8
19:00 1018 30.06 847 25.01 -1.6 29.2 59 -8.6 16.6
19:05 1018 30.06 847 25.01 -1.2 29.9 56 -8.9 16.1
19:10 1018 30.06 847 25.01 -0.7 30.8 55 -8.7 16.3
19:15 1018 30.06 847 25.01 -0.4 31.2 53 -8.8 16.1
19:20 1018 30.06 847 25.01 -0.5 31.1 55 -8.5 16.7
19:25 1018 30.06 847 25.01 -1 30.3 57 -8.4 16.9
19:30 1018 30.06 847 25.01 -1.1 30 58 -8.2 17.2
19:35 1018 30.06 847 25.01 -1.4 29.5 60 -8.1 17.4
19:40 1018 30.06 847 25.01 -1.6 29.1 60 -8.5 16.8
19:45 1018 30.06 847 25.01 -1.6 29.1 61 -8.2 17.2
19:50 1018 30.06 847 25.01 -1.8 28.8 61 -8.4 16.9
19:55 1018 30.06 847 25.01 -1.8 28.7 61 -8.4 16.8
20:00 1018 30.06 847 25.01 -1.7 28.9 62 -8.1 17.5
20:05 1018 30.06 847 25.01 -2.3 27.8 66 -7.9 17.8
20:10 1018 30.06 847 25.01 -3 26.7 68 -8.1 17.4
20:15 1018 30.06 847 25.01 -3.4 25.8 68 -8.6 16.5
20:20 1018 30.06 847 25.01 -3.3 26 65 -8.9 16
20:25 1018 30.06 847 25.01 -2.9 26.8 65 -8.5 16.6
20:30 1018 30.06 847 25.01 -2.7 27.2 65 -8.4 16.8
20:35 1018 30.06 847 25.01 -2.7 27.1 65 -8.3 17
20:40 1018 30.06 848 25.04 -2.8 26.9 64 -8.8 16.2
20:45 1018 30.06 848 25.04 -2.9 26.8 63 -8.9 16
20:50 1018 30.06 848 25.04 -2.9 26.9 63 -9 15.9
20:55 1018 30.06 848 25.04 -2.7 27.1 64 -8.7 16.3
21:00 1018 30.06 848 25.04 -2.8 26.9 63 -8.9 16
21:05 1018 30.06 848 25.04 -2.3 27.8 59 -9.2 15.5
21:10 1018 30.06 848 25.04 -1.7 28.9 57 -9.1 15.7
21:15 1019 30.09 848 25.04 -1.2 29.8 53 -9.6 14.7
21:20 1019 30.09 848 25.04 -1 30.3 55 -8.9 16
21:25 1019 30.09 848 25.04 -1 30.1 58 -8.4 16.9
21:30 1019 30.09 848 25.04 -1.1 30.1 57 -8.5 16.7
21:35 1019 30.09 848 25.04 -0.9 30.4 59 -8 17.5
21:40 1019 30.09 848 25.04 -1.1 30 60 -7.8 17.9
21:45 1019 30.09 848 25.04 -1.1 30 59 -8 17.6
21:50 1019 30.09 848 25.04 -0.8 30.5 58 -8 17.6
21:55 1019 30.09 848 25.04 -0.4 31.4 55 -8.4 16.8
22:00 1019 30.09 848 25.04 0.4 32.7 51 -8.5 16.7
22:05 1019 30.09 848 25.04 0.9 33.5 50 -8.5 16.6
22:10 1019 30.09 848 25.04 1 33.8 54 -7.2 19.1
22:15 1019 30.09 848 25.04 0.6 33 57 -7.1 19.2
22:20 1019 30.09 848 25.04 0.2 32.4 58 -7.1 19.2
22:25 1019 30.09 848 25.04 0 32 58 -7.4 18.7
22:30 1019 30.09 849 25.07 -0.1 31.9 57 -7.7 18.2
22:35 1019 30.09 849 25.07 0 32 56 -7.8 17.9
22:40 1019 30.09 849 25.07 0.1 32.2 54 -8.2 17.3
22:45 1020 30.12 849 25.07 0.2 32.4 52 -8.6 16.5
22:50 1020 30.12 849 25.07 0.4 32.6 52 -8.4 16.9
22:55 1020 30.12 849 25.07 0.4 32.7 52 -8.3 17.1
23:00 1020 30.12 849 25.07 0.3 32.6 53 -8.2 17.2
23:05 1020 30.12 849 25.07 0.2 32.4 54 -7.9 17.8
23:10 1020 30.12 849 25.07 0.1 32.2 55 -7.9 17.7
23:15 1020 30.12 849 25.07 0 32.1 56 -7.7 18.2
23:20 1020 30.12 849 25.07 -0.1 31.9 57 -7.5 18.5
23:25 1020 30.12 849 25.07 -0.1 31.9 60 -6.9 19.6
23:30 1020 30.12 849 25.07 -0 31.9 63 -6.2 20.8
23:35 1020 30.12 849 25.07 0 32 67 -5.4 22.3
23:40 1020 30.12 849 25.07 -0.1 31.9 68 -5.2 22.6
23:45 1020 30.12 849 25.07 -0.1 31.8 70 -4.9 23.1
23:50 1020 30.12 849 25.07 -0.1 31.9 70 -4.9 23.2
23:55 1020 30.12 849 25.07 -0 32 71 -4.7 23.6
24:00 1020 30.12 849 25.07 -0 31.9 72 -4.4 24.1